Allenstown, New Hampshire
Current Conditions -  °F | °C
As of 4:51 AM on Thursday 27 Nov 2014 (Local Time) from KCON Reporting Station
NA  
Wind Chill: 22°   Ceiling: NA
Heat Index: 31°   Visibility: 10mi
Dew Point: 29°   Wind: 10mph
Humidity: 92%   Direction: 310°NW
Pressure: 29.8"   Gusts: NA
Location:  43.1606°N, 71.4143°W
Report Text: KCON 270951Z AUTO 31009KT 10SM M01/M02 A2980 RMK AO2 SNE19 SLP096 P0000 T10061017 $
Loading
Personal Weather Stations






























Interactive Weather Map New forecast layout! Learn more

10-Day Weather Forecast

Advertisements
Track Severe Weather on mobile